sensor_id;sensor_type;location;lat;lon;timestamp;temperature;humidity
16182;DHT22;8197;51.664;7.114;2023-09-18T00:04:59;21.80;83.70
16182;DHT22;8197;51.664;7.114;2023-09-18T00:10:03;21.80;83.90
16182;DHT22;8197;51.664;7.114;2023-09-18T00:15:07;21.80;83.90
16182;DHT22;8197;51.664;7.114;2023-09-18T00:20:12;21.80;83.80
16182;DHT22;8197;51.664;7.114;2023-09-18T00:25:15;21.80;84.00
16182;DHT22;8197;51.664;7.114;2023-09-18T00:30:18;21.80;83.90
16182;DHT22;8197;51.664;7.114;2023-09-18T00:35:22;21.70;84.00
16182;DHT22;8197;51.664;7.114;2023-09-18T00:40:25;21.70;83.90
16182;DHT22;8197;51.664;7.114;2023-09-18T00:45:29;21.70;84.10
16182;DHT22;8197;51.664;7.114;2023-09-18T00:50:33;21.70;84.10
16182;DHT22;8197;51.664;7.114;2023-09-18T00:55:37;21.70;83.90
16182;DHT22;8197;51.664;7.114;2023-09-18T01:00:40;21.60;84.00
16182;DHT22;8197;51.664;7.114;2023-09-18T01:05:45;21.70;83.90
16182;DHT22;8197;51.664;7.114;2023-09-18T01:10:53;21.70;84.00
16182;DHT22;8197;51.664;7.114;2023-09-18T01:16:03;21.70;83.90
16182;DHT22;8197;51.664;7.114;2023-09-18T01:21:10;21.60;83.80
16182;DHT22;8197;51.664;7.114;2023-09-18T01:26:15;21.70;83.80
16182;DHT22;8197;51.664;7.114;2023-09-18T01:31:18;21.70;83.70
16182;DHT22;8197;51.664;7.114;2023-09-18T01:36:22;21.70;83.70
16182;DHT22;8197;51.664;7.114;2023-09-18T01:41:27;21.70;83.50
16182;DHT22;8197;51.664;7.114;2023-09-18T01:46:30;21.60;83.50
16182;DHT22;8197;51.664;7.114;2023-09-18T01:51:37;21.60;83.60
16182;DHT22;8197;51.664;7.114;2023-09-18T01:56:41;21.60;83.60
16182;DHT22;8197;51.664;7.114;2023-09-18T02:01:44;21.60;83.50
16182;DHT22;8197;51.664;7.114;2023-09-18T02:06:49;21.60;83.60
16182;DHT22;8197;51.664;7.114;2023-09-18T02:11:54;21.60;83.70
16182;DHT22;8197;51.664;7.114;2023-09-18T02:16:57;21.60;83.50
16182;DHT22;8197;51.664;7.114;2023-09-18T02:22:01;21.60;83.30
16182;DHT22;8197;51.664;7.114;2023-09-18T02:27:06;21.60;83.20
16182;DHT22;8197;51.664;7.114;2023-09-18T02:32:08;21.60;83.20
16182;DHT22;8197;51.664;7.114;2023-09-18T02:37:12;21.60;83.00
16182;DHT22;8197;51.664;7.114;2023-09-18T02:42:16;21.60;83.00
16182;DHT22;8197;51.664;7.114;2023-09-18T02:47:19;21.60;83.10
16182;DHT22;8197;51.664;7.114;2023-09-18T02:52:22;21.70;82.90
16182;DHT22;8197;51.664;7.114;2023-09-18T02:57:26;21.60;82.90
16182;DHT22;8197;51.664;7.114;2023-09-18T03:02:29;21.60;83.00
16182;DHT22;8197;51.664;7.114;2023-09-18T03:07:32;21.60;82.90
16182;DHT22;8197;51.664;7.114;2023-09-18T03:12:37;21.60;82.90
16182;DHT22;8197;51.664;7.114;2023-09-18T03:17:40;21.60;82.40
16182;DHT22;8197;51.664;7.114;2023-09-18T03:22:43;21.60;82.40
16182;DHT22;8197;51.664;7.114;2023-09-18T03:27:49;21.70;82.50
16182;DHT22;8197;51.664;7.114;2023-09-18T03:32:52;21.70;81.70
16182;DHT22;8197;51.664;7.114;2023-09-18T03:37:55;21.80;81.70
16182;DHT22;8197;51.664;7.114;2023-09-18T03:42:59;21.90;81.70
16182;DHT22;8197;51.664;7.114;2023-09-18T03:48:03;21.80;81.80
16182;DHT22;8197;51.664;7.114;2023-09-18T03:53:06;21.80;82.60
16182;DHT22;8197;51.664;7.114;2023-09-18T03:58:10;21.60;83.00
16182;DHT22;8197;51.664;7.114;2023-09-18T04:03:14;21.60;82.60
16182;DHT22;8197;51.664;7.114;2023-09-18T04:08:17;21.60;82.80
16182;DHT22;8197;51.664;7.114;2023-09-18T04:13:22;21.60;81.80
16182;DHT22;8197;51.664;7.114;2023-09-18T04:18:24;21.60;81.60
16182;DHT22;8197;51.664;7.114;2023-09-18T04:23:27;21.60;80.80
16182;DHT22;8197;51.664;7.114;2023-09-18T04:28:32;21.70;80.00
16182;DHT22;8197;51.664;7.114;2023-09-18T04:33:35;21.70;79.60
16182;DHT22;8197;51.664;7.114;2023-09-18T04:38:38;21.80;79.40
16182;DHT22;8197;51.664;7.114;2023-09-18T04:43:42;21.80;79.50
16182;DHT22;8197;51.664;7.114;2023-09-18T04:48:46;21.80;79.40
16182;DHT22;8197;51.664;7.114;2023-09-18T04:53:49;21.80;79.60
16182;DHT22;8197;51.664;7.114;2023-09-18T04:58:54;21.80;79.20
16182;DHT22;8197;51.664;7.114;2023-09-18T05:03:59;21.90;79.40
16182;DHT22;8197;51.664;7.114;2023-09-18T05:09:02;21.90;79.50
16182;DHT22;8197;51.664;7.114;2023-09-18T05:14:08;21.90;79.40
16182;DHT22;8197;51.664;7.114;2023-09-18T05:19:11;21.90;79.40
16182;DHT22;8197;51.664;7.114;2023-09-18T05:24:14;21.90;79.70
16182;DHT22;8197;51.664;7.114;2023-09-18T05:29:19;21.90;79.80
16182;DHT22;8197;51.664;7.114;2023-09-18T05:34:22;21.90;79.70
16182;DHT22;8197;51.664;7.114;2023-09-18T05:39:25;21.90;79.80
16182;DHT22;8197;51.664;7.114;2023-09-18T05:44:29;21.90;79.80
16182;DHT22;8197;51.664;7.114;2023-09-18T05:49:32;21.90;79.80
16182;DHT22;8197;51.664;7.114;2023-09-18T05:54:36;21.90;79.80
16182;DHT22;8197;51.664;7.114;2023-09-18T05:59:41;21.90;79.90
16182;DHT22;8197;51.664;7.114;2023-09-18T06:04:45;21.90;79.90
16182;DHT22;8197;51.664;7.114;2023-09-18T06:09:49;21.90;80.00
16182;DHT22;8197;51.664;7.114;2023-09-18T06:14:53;21.90;80.30
16182;DHT22;8197;51.664;7.114;2023-09-18T06:19:56;21.90;80.30
16182;DHT22;8197;51.664;7.114;2023-09-18T06:24:59;21.90;80.30
16182;DHT22;8197;51.664;7.114;2023-09-18T06:30:03;21.90;80.00
16182;DHT22;8197;51.664;7.114;2023-09-18T06:35:08;21.90;80.00
16182;DHT22;8197;51.664;7.114;2023-09-18T06:40:11;21.90;80.50
16182;DHT22;8197;51.664;7.114;2023-09-18T06:45:15;21.90;80.60
16182;DHT22;8197;51.664;7.114;2023-09-18T06:50:18;21.90;80.50
16182;DHT22;8197;51.664;7.114;2023-09-18T06:55:21;21.90;80.20
16182;DHT22;8197;51.664;7.114;2023-09-18T07:00:26;21.90;80.10
16182;DHT22;8197;51.664;7.114;2023-09-18T07:05:29;21.90;80.20
16182;DHT22;8197;51.664;7.114;2023-09-18T07:10:32;21.90;80.00
16182;DHT22;8197;51.664;7.114;2023-09-18T07:15:36;22.00;80.10
16182;DHT22;8197;51.664;7.114;2023-09-18T07:20:40;21.90;79.90
16182;DHT22;8197;51.664;7.114;2023-09-18T07:25:43;21.90;80.10
16182;DHT22;8197;51.664;7.114;2023-09-18T07:30:47;22.00;79.90
16182;DHT22;8197;51.664;7.114;2023-09-18T07:35:50;21.90;79.80
16182;DHT22;8197;51.664;7.114;2023-09-18T07:40:54;22.00;79.70
16182;DHT22;8197;51.664;7.114;2023-09-18T07:46:00;22.00;79.50
16182;DHT22;8197;51.664;7.114;2023-09-18T07:51:03;22.00;79.40
16182;DHT22;8197;51.664;7.114;2023-09-18T07:56:06;22.00;79.50
16182;DHT22;8197;51.664;7.114;2023-09-18T08:01:11;22.00;79.40
16182;DHT22;8197;51.664;7.114;2023-09-18T08:06:14;22.10;79.20
16182;DHT22;8197;51.664;7.114;2023-09-18T08:11:20;22.00;79.30
16182;DHT22;8197;51.664;7.114;2023-09-18T08:16:24;22.00;79.20
16182;DHT22;8197;51.664;7.114;2023-09-18T08:21:28;22.00;79.20
16182;DHT22;8197;51.664;7.114;2023-09-18T08:26:31;22.00;79.10
16182;DHT22;8197;51.664;7.114;2023-09-18T08:31:35;22.00;78.70
16182;DHT22;8197;51.664;7.114;2023-09-18T08:36:38;22.00;79.00
16182;DHT22;8197;51.664;7.114;2023-09-18T08:41:43;22.00;78.80
16182;DHT22;8197;51.664;7.114;2023-09-18T08:46:47;22.00;78.40
16182;DHT22;8197;51.664;7.114;2023-09-18T08:51:51;22.00;78.20
16182;DHT22;8197;51.664;7.114;2023-09-18T08:56:54;22.00;78.20
16182;DHT22;8197;51.664;7.114;2023-09-18T09:01:59;22.00;78.20
16182;DHT22;8197;51.664;7.114;2023-09-18T09:07:02;22.00;78.00
16182;DHT22;8197;51.664;7.114;2023-09-18T09:12:06;22.10;77.30
16182;DHT22;8197;51.664;7.114;2023-09-18T09:17:18;22.10;77.60
16182;DHT22;8197;51.664;7.114;2023-09-18T09:22:21;22.00;76.70
16182;DHT22;8197;51.664;7.114;2023-09-18T09:27:24;22.00;77.40
16182;DHT22;8197;51.664;7.114;2023-09-18T09:32:31;22.00;76.80
16182;DHT22;8197;51.664;7.114;2023-09-18T09:37:35;22.10;76.50
16182;DHT22;8197;51.664;7.114;2023-09-18T09:42:39;22.20;76.50
16182;DHT22;8197;51.664;7.114;2023-09-18T09:47:44;22.40;75.70
16182;DHT22;8197;51.664;7.114;2023-09-18T09:52:48;22.30;76.00
16182;DHT22;8197;51.664;7.114;2023-09-18T09:57:54;22.30;75.10
16182;DHT22;8197;51.664;7.114;2023-09-18T10:03:02;22.20;75.60
16182;DHT22;8197;51.664;7.114;2023-09-18T10:08:07;22.30;74.40
16182;DHT22;8197;51.664;7.114;2023-09-18T10:13:15;22.30;74.50
16182;DHT22;8197;51.664;7.114;2023-09-18T10:18:27;22.40;73.50
16182;DHT22;8197;51.664;7.114;2023-09-18T10:23:44;22.30;73.30
16182;DHT22;8197;51.664;7.114;2023-09-18T10:28:49;22.40;73.60
16182;DHT22;8197;51.664;7.114;2023-09-18T10:33:57;22.40;74.30
16182;DHT22;8197;51.664;7.114;2023-09-18T10:39:01;22.40;73.70
16182;DHT22;8197;51.664;7.114;2023-09-18T10:44:10;22.50;73.20
16182;DHT22;8197;51.664;7.114;2023-09-18T10:49:15;22.60;72.90
16182;DHT22;8197;51.664;7.114;2023-09-18T10:54:21;22.70;72.40
16182;DHT22;8197;51.664;7.114;2023-09-18T10:59:27;22.70;72.70
16182;DHT22;8197;51.664;7.114;2023-09-18T11:04:32;22.80;71.80
16182;DHT22;8197;51.664;7.114;2023-09-18T11:09:43;22.90;71.50
16182;DHT22;8197;51.664;7.114;2023-09-18T11:14:49;22.80;71.90
16182;DHT22;8197;51.664;7.114;2023-09-18T11:20:05;22.80;72.20
16182;DHT22;8197;51.664;7.114;2023-09-18T11:25:36;22.90;72.10
16182;DHT22;8197;51.664;7.114;2023-09-18T11:30:49;23.10;71.10
16182;DHT22;8197;51.664;7.114;2023-09-18T11:35:54;23.00;70.90
16182;DHT22;8197;51.664;7.114;2023-09-18T11:40:57;22.90;70.90
16182;DHT22;8197;51.664;7.114;2023-09-18T11:46:00;23.10;70.50
16182;DHT22;8197;51.664;7.114;2023-09-18T11:51:07;23.10;70.30
16182;DHT22;8197;51.664;7.114;2023-09-18T11:56:13;22.90;70.70
16182;DHT22;8197;51.664;7.114;2023-09-18T12:01:19;23.10;69.80
16182;DHT22;8197;51.664;7.114;2023-09-18T12:06:25;23.20;68.80
16182;DHT22;8197;51.664;7.114;2023-09-18T12:11:29;23.10;69.90
16182;DHT22;8197;51.664;7.114;2023-09-18T12:16:37;23.10;69.70
16182;DHT22;8197;51.664;7.114;2023-09-18T12:21:42;23.10;69.70
16182;DHT22;8197;51.664;7.114;2023-09-18T12:26:49;23.10;69.20
16182;DHT22;8197;51.664;7.114;2023-09-18T12:31:52;23.00;69.60
16182;DHT22;8197;51.664;7.114;2023-09-18T12:36:56;22.90;70.40
16182;DHT22;8197;51.664;7.114;2023-09-18T12:41:59;22.90;70.40
16182;DHT22;8197;51.664;7.114;2023-09-18T12:47:05;22.90;70.40
16182;DHT22;8197;51.664;7.114;2023-09-18T12:52:09;22.90;70.10
16182;DHT22;8197;51.664;7.114;2023-09-18T12:57:16;22.80;70.30
16182;DHT22;8197;51.664;7.114;2023-09-18T13:02:19;22.80;70.20
16182;DHT22;8197;51.664;7.114;2023-09-18T13:07:24;22.80;69.30
16182;DHT22;8197;51.664;7.114;2023-09-18T13:12:39;23.00;69.40
16182;DHT22;8197;51.664;7.114;2023-09-18T13:17:44;23.00;68.50
16182;DHT22;8197;51.664;7.114;2023-09-18T13:22:50;23.10;68.30
16182;DHT22;8197;51.664;7.114;2023-09-18T13:27:53;23.10;68.30
16182;DHT22;8197;51.664;7.114;2023-09-18T13:33:02;23.00;68.20
16182;DHT22;8197;51.664;7.114;2023-09-18T13:38:08;23.00;67.60
16182;DHT22;8197;51.664;7.114;2023-09-18T13:43:13;23.00;67.50
16182;DHT22;8197;51.664;7.114;2023-09-18T13:48:17;23.00;66.70
16182;DHT22;8197;51.664;7.114;2023-09-18T13:53:21;23.00;66.60
16182;DHT22;8197;51.664;7.114;2023-09-18T13:58:25;23.00;66.60
16182;DHT22;8197;51.664;7.114;2023-09-18T14:03:28;23.10;66.10
16182;DHT22;8197;51.664;7.114;2023-09-18T14:08:36;23.10;65.90
16182;DHT22;8197;51.664;7.114;2023-09-18T14:13:40;23.10;65.70
16182;DHT22;8197;51.664;7.114;2023-09-18T14:18:44;23.00;65.60
16182;DHT22;8197;51.664;7.114;2023-09-18T14:23:48;23.10;65.60
16182;DHT22;8197;51.664;7.114;2023-09-18T14:28:51;23.20;62.80
16182;DHT22;8197;51.664;7.114;2023-09-18T14:33:55;23.20;62.40
16182;DHT22;8197;51.664;7.114;2023-09-18T14:39:01;23.20;63.60
16182;DHT22;8197;51.664;7.114;2023-09-18T14:44:05;23.20;62.50
16182;DHT22;8197;51.664;7.114;2023-09-18T14:49:10;23.20;61.60
16182;DHT22;8197;51.664;7.114;2023-09-18T14:54:14;23.20;61.40
16182;DHT22;8197;51.664;7.114;2023-09-18T14:59:17;23.20;62.20
16182;DHT22;8197;51.664;7.114;2023-09-18T15:04:40;23.10;62.90
16182;DHT22;8197;51.664;7.114;2023-09-18T15:09:45;23.10;62.90
16182;DHT22;8197;51.664;7.114;2023-09-18T15:14:48;23.10;63.20
16182;DHT22;8197;51.664;7.114;2023-09-18T15:19:50;23.10;62.20
16182;DHT22;8197;51.664;7.114;2023-09-18T15:24:58;23.10;60.90
16182;DHT22;8197;51.664;7.114;2023-09-18T15:30:04;23.20;61.30
16182;DHT22;8197;51.664;7.114;2023-09-18T15:35:08;23.10;60.00
16182;DHT22;8197;51.664;7.114;2023-09-18T15:40:13;23.20;60.80
16182;DHT22;8197;51.664;7.114;2023-09-18T15:45:17;23.10;59.80
16182;DHT22;8197;51.664;7.114;2023-09-18T15:50:21;23.10;59.00
16182;DHT22;8197;51.664;7.114;2023-09-18T15:55:26;23.10;59.40
16182;DHT22;8197;51.664;7.114;2023-09-18T16:00:29;23.10;59.80
16182;DHT22;8197;51.664;7.114;2023-09-18T16:05:36;23.10;60.40
16182;DHT22;8197;51.664;7.114;2023-09-18T16:10:40;23.10;60.90
16182;DHT22;8197;51.664;7.114;2023-09-18T16:15:44;23.10;59.80
16182;DHT22;8197;51.664;7.114;2023-09-18T16:20:47;23.00;60.80
16182;DHT22;8197;51.664;7.114;2023-09-18T16:25:52;23.00;60.80
16182;DHT22;8197;51.664;7.114;2023-09-18T16:30:55;23.00;59.60
16182;DHT22;8197;51.664;7.114;2023-09-18T16:35:58;23.00;61.10
16182;DHT22;8197;51.664;7.114;2023-09-18T16:41:03;23.00;59.20
16182;DHT22;8197;51.664;7.114;2023-09-18T16:46:05;23.00;59.00
16182;DHT22;8197;51.664;7.114;2023-09-18T16:51:09;23.00;60.20
16182;DHT22;8197;51.664;7.114;2023-09-18T16:56:13;23.00;60.10
16182;DHT22;8197;51.664;7.114;2023-09-18T17:01:16;23.00;59.50
16182;DHT22;8197;51.664;7.114;2023-09-18T17:06:19;23.00;60.80
16182;DHT22;8197;51.664;7.114;2023-09-18T17:11:24;22.90;60.40
16182;DHT22;8197;51.664;7.114;2023-09-18T17:16:27;22.90;60.80
16182;DHT22;8197;51.664;7.114;2023-09-18T17:21:32;22.90;60.00
16182;DHT22;8197;51.664;7.114;2023-09-18T17:26:37;22.90;61.00
16182;DHT22;8197;51.664;7.114;2023-09-18T17:31:40;22.80;61.40
16182;DHT22;8197;51.664;7.114;2023-09-18T17:36:43;22.80;61.50
16182;DHT22;8197;51.664;7.114;2023-09-18T17:41:47;22.80;62.00
16182;DHT22;8197;51.664;7.114;2023-09-18T17:46:50;22.70;62.60
16182;DHT22;8197;51.664;7.114;2023-09-18T17:51:53;22.50;65.70
16182;DHT22;8197;51.664;7.114;2023-09-18T17:56:57;22.30;67.40
16182;DHT22;8197;51.664;7.114;2023-09-18T18:02:01;22.10;68.50
16182;DHT22;8197;51.664;7.114;2023-09-18T18:07:06;22.00;69.20
16182;DHT22;8197;51.664;7.114;2023-09-18T18:12:10;22.00;69.40
16182;DHT22;8197;51.664;7.114;2023-09-18T18:17:13;22.10;69.60
16182;DHT22;8197;51.664;7.114;2023-09-18T18:22:16;22.20;69.60
16182;DHT22;8197;51.664;7.114;2023-09-18T18:27:21;22.10;70.60
16182;DHT22;8197;51.664;7.114;2023-09-18T18:32:24;22.00;71.70
16182;DHT22;8197;51.664;7.114;2023-09-18T18:37:27;22.00;72.20
16182;DHT22;8197;51.664;7.114;2023-09-18T18:42:34;22.00;72.70
16182;DHT22;8197;51.664;7.114;2023-09-18T18:47:37;21.90;72.50
16182;DHT22;8197;51.664;7.114;2023-09-18T18:52:40;21.90;72.70
16182;DHT22;8197;51.664;7.114;2023-09-18T18:57:45;21.80;73.70
16182;DHT22;8197;51.664;7.114;2023-09-18T19:02:48;21.70;74.40
16182;DHT22;8197;51.664;7.114;2023-09-18T19:07:51;21.70;74.60
16182;DHT22;8197;51.664;7.114;2023-09-18T19:12:55;21.60;74.80
16182;DHT22;8197;51.664;7.114;2023-09-18T19:17:59;21.60;75.10
16182;DHT22;8197;51.664;7.114;2023-09-18T19:23:02;21.60;75.20
16182;DHT22;8197;51.664;7.114;2023-09-18T19:28:06;21.50;75.30
16182;DHT22;8197;51.664;7.114;2023-09-18T19:33:09;21.50;75.20
16182;DHT22;8197;51.664;7.114;2023-09-18T19:38:13;21.40;75.30
16182;DHT22;8197;51.664;7.114;2023-09-18T19:43:19;21.40;75.00
16182;DHT22;8197;51.664;7.114;2023-09-18T19:48:23;21.30;75.20
16182;DHT22;8197;51.664;7.114;2023-09-18T19:53:26;21.30;75.20
16182;DHT22;8197;51.664;7.114;2023-09-18T19:58:31;21.30;75.00
16182;DHT22;8197;51.664;7.114;2023-09-18T20:03:35;21.30;74.90
16182;DHT22;8197;51.664;7.114;2023-09-18T20:08:38;21.20;75.10
16182;DHT22;8197;51.664;7.114;2023-09-18T20:13:43;21.20;74.70
16182;DHT22;8197;51.664;7.114;2023-09-18T20:18:46;21.10;75.00
16182;DHT22;8197;51.664;7.114;2023-09-18T20:23:51;21.10;75.00
16182;DHT22;8197;51.664;7.114;2023-09-18T20:28:56;21.10;75.20
16182;DHT22;8197;51.664;7.114;2023-09-18T20:33:59;21.10;75.10
16182;DHT22;8197;51.664;7.114;2023-09-18T20:39:02;21.00;75.00
16182;DHT22;8197;51.664;7.114;2023-09-18T20:44:08;21.20;75.00
16182;DHT22;8197;51.664;7.114;2023-09-18T20:49:11;21.10;75.50
16182;DHT22;8197;51.664;7.114;2023-09-18T20:54:15;21.00;75.60
16182;DHT22;8197;51.664;7.114;2023-09-18T20:59:19;20.90;75.60
16182;DHT22;8197;51.664;7.114;2023-09-18T21:04:22;20.90;75.80
16182;DHT22;8197;51.664;7.114;2023-09-18T21:09:25;20.90;76.10
16182;DHT22;8197;51.664;7.114;2023-09-18T21:14:30;20.80;76.30
16182;DHT22;8197;51.664;7.114;2023-09-18T21:19:33;20.80;76.20
16182;DHT22;8197;51.664;7.114;2023-09-18T21:24:36;20.90;76.10
16182;DHT22;8197;51.664;7.114;2023-09-18T21:29:42;20.80;76.00
16182;DHT22;8197;51.664;7.114;2023-09-18T21:34:45;20.80;76.20
16182;DHT22;8197;51.664;7.114;2023-09-18T21:39:48;20.90;75.90
16182;DHT22;8197;51.664;7.114;2023-09-18T21:44:53;20.90;75.80
16182;DHT22;8197;51.664;7.114;2023-09-18T21:49:56;20.90;75.30
16182;DHT22;8197;51.664;7.114;2023-09-18T21:54:59;20.90;75.40
16182;DHT22;8197;51.664;7.114;2023-09-18T22:00:05;21.00;75.50
16182;DHT22;8197;51.664;7.114;2023-09-18T22:05:30;20.90;74.90
16182;DHT22;8197;51.664;7.114;2023-09-18T22:10:33;21.00;74.30
16182;DHT22;8197;51.664;7.114;2023-09-18T22:15:38;20.90;74.70
16182;DHT22;8197;51.664;7.114;2023-09-18T22:20:43;20.90;74.40
16182;DHT22;8197;51.664;7.114;2023-09-18T22:25:46;20.90;74.20
16182;DHT22;8197;51.664;7.114;2023-09-18T22:31:01;20.90;73.50
16182;DHT22;8197;51.664;7.114;2023-09-18T22:36:05;20.90;72.90
16182;DHT22;8197;51.664;7.114;2023-09-18T22:57:46;20.80;71.00
16182;DHT22;8197;51.664;7.114;2023-09-18T23:02:49;20.80;71.00
16182;DHT22;8197;51.664;7.114;2023-09-18T23:07:55;20.70;70.70
16182;DHT22;8197;51.664;7.114;2023-09-18T23:13:00;20.70;70.60
16182;DHT22;8197;51.664;7.114;2023-09-18T23:18:06;20.60;69.60
16182;DHT22;8197;51.664;7.114;2023-09-18T23:23:09;20.70;70.40
16182;DHT22;8197;51.664;7.114;2023-09-18T23:28:14;20.70;69.90
16182;DHT22;8197;51.664;7.114;2023-09-18T23:33:18;20.60;68.70
16182;DHT22;8197;51.664;7.114;2023-09-18T23:38:23;20.50;69.00
16182;DHT22;8197;51.664;7.114;2023-09-18T23:43:29;20.50;68.70
16182;DHT22;8197;51.664;7.114;2023-09-18T23:48:35;20.50;68.60
16182;DHT22;8197;51.664;7.114;2023-09-18T23:53:43;20.40;67.80
16182;DHT22;8197;51.664;7.114;2023-09-18T23:58:48;20.40;67.90
